»·PEaware :: N529B KBUR-KLAS

N529B :: KBUR-KLAS

FLIGHT INFORMATION

Flight Status: Arrived
Operator: Privately registered:
United States
More flights under this callsign
Pilot: Kim B. (19519)
Aircraft: Unknown
(B29)
More flights by this aircraft type
Origin: KBUR Bob Hope-Burbank
United States
Destination: KLAS McCarran Intl
United States
More flights between these airports :: More routes between these airports
Route: +VNY3 DAG CRESO4
File this flight plan on PilotEdge
Remarks:
Altitude:
(Current/Filed)
9,000ft
Speed:
(Current/Filed)
180kts
Departed: 21-Sep-18 06:25 PM
Arrived: 21-Sep-18 07:43 PM
Distance/Time
Traveled:
193nm/1:18
Distance/Time
To Go:
Arrived

Flight Plot

Page will automatically refresh every two minutes.

Flight plan parsing failed; only flown route is shown


Map Options




Map Legend


Flown Route
Filed Route
Departure Airport
Arrival Airport
Navaid (VOR, NDB)
Fix

Horizontal Profiles

Position Reports

Time Latitude Longitude Heading Altitude Ground
Speed
21-Sep-18 18:04 34.200180 -118.364859 89 785ft 0kts
21-Sep-18 18:05 34.200180 -118.364859 89 785ft 0kts
21-Sep-18 18:06 34.200180 -118.364859 89 785ft 0kts
21-Sep-18 18:07 34.200180 -118.364859 89 785ft 0kts
21-Sep-18 18:08 34.200180 -118.364859 89 785ft 0kts
21-Sep-18 18:09 34.200180 -118.364859 89 785ft 0kts
21-Sep-18 18:10 34.200180 -118.364859 89 785ft 0kts
21-Sep-18 18:11 34.200180 -118.364859 89 785ft 0kts
21-Sep-18 18:12 34.200180 -118.364859 89 785ft 0kts
21-Sep-18 18:13 34.200180 -118.364859 89 785ft 0kts
21-Sep-18 18:14 34.200180 -118.364859 89 785ft 0kts
21-Sep-18 18:15 34.200180 -118.364859 89 785ft 0kts
21-Sep-18 18:16 34.200180 -118.364859 89 785ft 0kts
21-Sep-18 18:17 34.200180 -118.364859 89 785ft 0kts
21-Sep-18 18:18 34.200180 -118.364859 89 785ft 0kts
21-Sep-18 18:19 34.200180 -118.364859 89 785ft 0kts
21-Sep-18 18:20 34.200180 -118.364859 89 785ft 0kts
21-Sep-18 18:21 34.200029 -118.364580 162 785ft 5kts
21-Sep-18 18:22 34.198882 -118.360373 92 785ft 24kts
21-Sep-18 18:23 34.202526 -118.358886 347 785ft 24kts
21-Sep-18 18:24 34.210270 -118.361022 346 785ft 24kts
21-Sep-18 18:25 34.211991 -118.361302 35 785ft 0kts
21-Sep-18 18:26 34.212129 -118.361033 69 785ft 8kts
21-Sep-18 18:27 34.207342 -118.359053 170 785ft 82kts
21-Sep-18 18:28 34.175901 -118.353163 195 1192ft 138kts
21-Sep-18 18:29 34.144000 -118.387949 223 1946ft 168kts
21-Sep-18 18:30 34.110726 -118.427688 223 2602ft 169kts
21-Sep-18 18:31 34.077701 -118.467093 224 3248ft 169kts
21-Sep-18 18:32 34.062853 -118.514415 307 3907ft 172kts
21-Sep-18 18:33 34.108230 -118.529131 351 4568ft 175kts
21-Sep-18 18:34 34.157499 -118.536963 351 5087ft 183kts
21-Sep-18 18:35 34.208859 -118.545870 351 5609ft 190kts
21-Sep-18 18:36 34.260452 -118.545630 36 6150ft 190kts
21-Sep-18 18:37 34.305320 -118.512037 31 6786ft 190kts
21-Sep-18 18:38 34.351524 -118.481246 30 7412ft 189kts
21-Sep-18 18:39 34.393199 -118.444629 54 8042ft 185kts
21-Sep-18 18:40 34.424419 -118.394722 52 8630ft 186kts
21-Sep-18 18:41 34.455759 -118.344886 53 9237ft 186kts
21-Sep-18 18:42 34.487351 -118.294549 54 9796ft 194kts
21-Sep-18 18:43 34.521274 -118.240372 54 10286ft 209kts
21-Sep-18 18:44 34.557605 -118.182231 54 10767ft 223kts
21-Sep-18 18:45 34.596840 -118.120053 55 11017ft 244kts
21-Sep-18 18:46 34.633349 -118.050248 83 11014ft 244kts
21-Sep-18 18:47 34.641915 -117.968729 84 10997ft 243kts
21-Sep-18 18:48 34.650726 -117.887710 84 10988ft 242kts
21-Sep-18 18:49 34.659503 -117.806776 84 10983ft 240kts
21-Sep-18 18:50 34.672984 -117.728991 74 10993ft 240kts
21-Sep-18 18:51 34.692867 -117.651815 74 11005ft 239kts
21-Sep-18 18:52 34.712521 -117.575044 74 11016ft 237kts
21-Sep-18 18:53 34.732073 -117.498449 74 11015ft 237kts
21-Sep-18 18:54 34.751562 -117.421858 74 11014ft 237kts
21-Sep-18 18:55 34.770907 -117.345615 75 11016ft 236kts
21-Sep-18 18:56 34.790276 -117.269063 75 11006ft 236kts
21-Sep-18 18:57 34.809505 -117.192843 75 11050ft 234kts
21-Sep-18 18:58 34.828578 -117.116994 75 11032ft 235kts
21-Sep-18 18:59 34.847633 -117.040946 74 11017ft 235kts
21-Sep-18 19:00 34.863529 -116.977376 74 11009ft 235kts
21-Sep-18 19:01 34.885604 -116.888866 73 11005ft 234kts
21-Sep-18 19:02 34.901254 -116.825994 73 11005ft 233kts
21-Sep-18 19:03 34.920028 -116.750294 73 11005ft 233kts
21-Sep-18 19:04 34.938693 -116.674798 73 11005ft 232kts
21-Sep-18 19:05 34.957278 -116.599405 74 11007ft 232kts
21-Sep-18 19:06 34.984569 -116.528524 62 11015ft 232kts
21-Sep-18 19:07 35.015383 -116.459283 62 11026ft 232kts
21-Sep-18 19:08 35.047540 -116.391385 54 11045ft 233kts
21-Sep-18 19:09 35.085944 -116.327589 55 11043ft 234kts
21-Sep-18 19:10 35.124374 -116.263677 55 11041ft 234kts
21-Sep-18 19:11 35.162978 -116.199363 55 11041ft 235kts
21-Sep-18 19:12 35.201713 -116.134699 55 10841ft 244kts
21-Sep-18 19:13 35.242764 -116.066046 55 10273ft 254kts
21-Sep-18 19:14 35.284153 -115.996720 55 10064ft 243kts
21-Sep-18 19:15 35.322422 -115.932494 55 10065ft 226kts
21-Sep-18 19:16 35.358257 -115.872242 55 10063ft 212kts
21-Sep-18 19:17 35.392279 -115.814935 55 10065ft 206kts
21-Sep-18 19:18 35.425533 -115.758831 55 10067ft 201kts
21-Sep-18 19:19 35.457922 -115.704102 55 10066ft 196kts
21-Sep-18 19:20 35.489435 -115.650771 55 10064ft 192kts
21-Sep-18 19:21 35.521600 -115.596245 55 10071ft 202kts
21-Sep-18 19:22 35.545212 -115.534614 48 10078ft 211kts
21-Sep-18 19:23 35.586145 -115.481437 47 10070ft 220kts
21-Sep-18 19:24 35.628749 -115.426031 47 10069ft 227kts
21-Sep-18 19:25 35.672329 -115.369256 47 9870ft 226kts
21-Sep-18 19:26 35.713420 -115.315870 48 9199ft 207kts
21-Sep-18 19:27 35.752214 -115.264953 48 8357ft 202kts
21-Sep-18 19:28 35.790347 -115.214399 48 7475ft 202kts
21-Sep-18 19:29 35.827611 -115.165193 48 7060ft 182kts
21-Sep-18 19:30 35.863378 -115.118181 48 6355ft 199kts
21-Sep-18 19:31 35.900539 -115.069455 48 6050ft 182kts
21-Sep-18 19:32 35.933543 -115.026541 48 6054ft 167kts
21-Sep-18 19:33 35.952929 -114.976774 68 6057ft 161kts
21-Sep-18 19:34 35.971224 -114.924608 68 5794ft 177kts
21-Sep-18 19:35 35.991165 -114.867166 68 5555ft 178kts
21-Sep-18 19:36 36.010322 -114.812283 68 5557ft 170kts
21-Sep-18 19:37 36.042826 -114.780841 337 5547ft 170kts
21-Sep-18 19:38 36.064945 -114.829122 277 5541ft 165kts
21-Sep-18 19:39 36.071749 -114.885112 279 5548ft 165kts
21-Sep-18 19:40 36.076045 -114.941090 267 5542ft 165kts
21-Sep-18 19:41 36.076307 -114.995951 267 5531ft 148kts
21-Sep-18 19:42 36.076300 -115.050184 265 4150ft 176kts
21-Sep-18 19:43 36.076971 -115.106892 265 2080ft 146kts
21-Sep-18 19:44 36.076337 -115.141577 270 2088ft 62kts
21-Sep-18 19:45 36.077276 -115.151658 299 2119ft 0kts
21-Sep-18 19:46 36.078043 -115.153719 276 2126ft 24kts
21-Sep-18 19:47 36.078055 -115.158077 268 2143ft 31kts
21-Sep-18 19:48 36.078026 -115.169732 269 2180ft 22kts
21-Sep-18 19:49 36.081488 -115.170311 273 2171ft 8kts
21-Sep-18 19:50 36.081607 -115.171118 359 2172ft 0kts
21-Sep-18 19:51 36.081606 -115.171118 359 2172ft 0kts
21-Sep-18 19:52 36.081606 -115.171118 359 2172ft 0kts
21-Sep-18 19:53 36.081606 -115.171118 359 2172ft 0kts
21-Sep-18 19:54 36.081606 -115.171118 359 2172ft 0kts
21-Sep-18 19:55 36.081606 -115.171118 359 2172ft 0kts
21-Sep-18 19:56 36.081606 -115.171118 359 2172ft 0kts
21-Sep-18 19:57 36.081606 -115.171118 359 2172ft 0kts
21-Sep-18 19:58 36.081606 -115.171118 359 2172ft 0kts
21-Sep-18 19:59 36.081606 -115.171118 359 2172ft 0kts

Navigation Log

Ident Type
Flight plan parsing failed, navigation log unavailable